sensor_id;sensor_type;location;lat;lon;timestamp;pressure;altitude;pressure_sealevel;temperature;humidity
48668;BME280;34453;52.198;5.004;2023-04-22T00:00:22;100992.59;;;8.54;100.00
48668;BME280;34453;52.198;5.004;2023-04-22T00:02:47;100995.34;;;8.52;100.00
48668;BME280;34453;52.198;5.004;2023-04-22T00:05:13;101001.28;;;8.54;100.00
48668;BME280;34453;52.198;5.004;2023-04-22T00:07:41;100999.16;;;8.48;100.00
48668;BME280;34453;52.198;5.004;2023-04-22T00:10:08;101006.28;;;8.46;100.00
48668;BME280;34453;52.198;5.004;2023-04-22T00:12:34;100998.44;;;8.46;100.00
48668;BME280;34453;52.198;5.004;2023-04-22T00:14:59;101002.13;;;8.43;100.00
48668;BME280;34453;52.198;5.004;2023-04-22T00:17:25;100999.41;;;8.45;100.00
48668;BME280;34453;52.198;5.004;2023-04-22T00:19:50;101006.28;;;8.46;100.00
48668;BME280;34453;52.198;5.004;2023-04-22T00:22:16;100998.91;;;8.40;100.00
48668;BME280;34453;52.198;5.004;2023-04-22T00:24:41;101006.16;;;8.36;100.00
48668;BME280;34453;52.198;5.004;2023-04-22T00:27:07;101004.50;;;8.35;100.00
48668;BME280;34453;52.198;5.004;2023-04-22T00:29:32;101009.13;;;8.32;100.00
48668;BME280;34453;52.198;5.004;2023-04-22T00:31:58;101006.38;;;8.33;100.00
48668;BME280;34453;52.198;5.004;2023-04-22T00:34:23;100989.34;;;8.29;100.00
48668;BME280;34453;52.198;5.004;2023-04-22T00:36:48;101006.06;;;8.26;100.00
48668;BME280;34453;52.198;5.004;2023-04-22T00:39:15;101002.88;;;8.23;100.00
48668;BME280;34453;52.198;5.004;2023-04-22T00:41:41;101006.88;;;8.27;100.00
48668;BME280;34453;52.198;5.004;2023-04-22T00:44:11;100995.88;;;8.23;100.00
48668;BME280;34453;52.198;5.004;2023-04-22T00:46:37;101002.72;;;8.24;100.00
48668;BME280;34453;52.198;5.004;2023-04-22T00:49:04;101001.19;;;8.22;100.00
48668;BME280;34453;52.198;5.004;2023-04-22T00:51:29;101005.13;;;8.16;100.00
48668;BME280;34453;52.198;5.004;2023-04-22T00:53:55;101011.28;;;8.15;100.00
48668;BME280;34453;52.198;5.004;2023-04-22T00:56:23;101008.13;;;8.12;100.00
48668;BME280;34453;52.198;5.004;2023-04-22T00:58:51;101006.56;;;7.98;100.00
48668;BME280;34453;52.198;5.004;2023-04-22T01:01:17;101013.94;;;7.59;100.00
48668;BME280;34453;52.198;5.004;2023-04-22T01:03:43;101013.66;;;7.39;100.00
48668;BME280;34453;52.198;5.004;2023-04-22T01:06:10;101009.88;;;7.43;100.00
48668;BME280;34453;52.198;5.004;2023-04-22T01:08:35;101021.84;;;7.46;100.00
48668;BME280;34453;52.198;5.004;2023-04-22T01:11:01;101029.09;;;7.54;100.00
48668;BME280;34453;52.198;5.004;2023-04-22T01:13:26;101022.81;;;7.56;100.00
48668;BME280;34453;52.198;5.004;2023-04-22T01:15:52;101018.31;;;7.58;100.00
48668;BME280;34453;52.198;5.004;2023-04-22T01:18:18;101019.25;;;7.57;100.00
48668;BME280;34453;52.198;5.004;2023-04-22T01:20:44;101022.31;;;7.51;100.00
48668;BME280;34453;52.198;5.004;2023-04-22T01:23:19;101030.25;;;7.50;100.00
48668;BME280;34453;52.198;5.004;2023-04-22T01:25:46;101036.38;;;7.48;100.00
48668;BME280;34453;52.198;5.004;2023-04-22T01:28:12;101036.19;;;7.52;100.00
48668;BME280;34453;52.198;5.004;2023-04-22T01:30:38;101034.41;;;7.52;100.00
48668;BME280;34453;52.198;5.004;2023-04-22T01:33:04;101032.84;;;7.50;100.00
48668;BME280;34453;52.198;5.004;2023-04-22T01:35:30;101038.75;;;7.40;100.00
48668;BME280;34453;52.198;5.004;2023-04-22T01:38:02;101029.88;;;7.32;100.00
48668;BME280;34453;52.198;5.004;2023-04-22T01:40:30;101022.41;;;7.27;100.00
48668;BME280;34453;52.198;5.004;2023-04-22T01:42:55;101023.59;;;7.23;100.00
48668;BME280;34453;52.198;5.004;2023-04-22T01:45:21;101030.66;;;7.21;100.00
48668;BME280;34453;52.198;5.004;2023-04-22T01:47:46;101035.16;;;7.19;100.00
48668;BME280;34453;52.198;5.004;2023-04-22T01:50:12;101030.53;;;7.22;100.00
48668;BME280;34453;52.198;5.004;2023-04-22T01:52:38;101022.25;;;7.17;100.00
48668;BME280;34453;52.198;5.004;2023-04-22T01:55:03;101028.53;;;7.15;100.00
48668;BME280;34453;52.198;5.004;2023-04-22T01:57:29;101034.44;;;7.17;100.00
48668;BME280;34453;52.198;5.004;2023-04-22T01:59:55;101036.59;;;7.23;100.00
48668;BME280;34453;52.198;5.004;2023-04-22T02:02:22;101029.72;;;7.22;100.00
48668;BME280;34453;52.198;5.004;2023-04-22T02:04:48;101028.78;;;7.23;100.00
48668;BME280;34453;52.198;5.004;2023-04-22T02:07:13;101028.06;;;7.21;100.00
48668;BME280;34453;52.198;5.004;2023-04-22T02:09:38;101022.88;;;7.21;100.00
48668;BME280;34453;52.198;5.004;2023-04-22T02:12:04;101022.25;;;7.17;100.00
48668;BME280;34453;52.198;5.004;2023-04-22T02:14:29;101015.97;;;7.20;100.00
48668;BME280;34453;52.198;5.004;2023-04-22T02:16:55;101025.56;;;7.19;100.00
48668;BME280;34453;52.198;5.004;2023-04-22T02:19:20;101013.16;;;7.12;100.00
48668;BME280;34453;52.198;5.004;2023-04-22T02:21:46;101011.81;;;7.06;100.00
48668;BME280;34453;52.198;5.004;2023-04-22T02:24:11;101015.09;;;6.97;100.00
48668;BME280;34453;52.198;5.004;2023-04-22T02:26:36;101034.84;;;6.99;100.00
48668;BME280;34453;52.198;5.004;2023-04-22T02:29:02;101036.28;;;7.03;100.00
48668;BME280;34453;52.198;5.004;2023-04-22T02:31:27;101030.59;;;6.98;100.00
48668;BME280;34453;52.198;5.004;2023-04-22T02:33:53;101022.44;;;6.92;100.00
48668;BME280;34453;52.198;5.004;2023-04-22T02:36:18;101012.84;;;6.92;100.00
48668;BME280;34453;52.198;5.004;2023-04-22T02:38:44;101020.59;;;6.81;100.00
48668;BME280;34453;52.198;5.004;2023-04-22T02:41:10;101012.56;;;6.84;100.00
48668;BME280;34453;52.198;5.004;2023-04-22T02:43:35;101001.72;;;6.90;100.00
48668;BME280;34453;52.198;5.004;2023-04-22T02:46:01;101007.16;;;6.87;100.00
48668;BME280;34453;52.198;5.004;2023-04-22T02:48:26;101004.75;;;6.84;100.00
48668;BME280;34453;52.198;5.004;2023-04-22T02:50:52;100996.09;;;6.72;100.00
48668;BME280;34453;52.198;5.004;2023-04-22T02:53:17;101003.03;;;6.60;100.00
48668;BME280;34453;52.198;5.004;2023-04-22T02:55:42;100995.19;;;6.49;100.00
48668;BME280;34453;52.198;5.004;2023-04-22T02:58:08;100996.44;;;6.43;100.00
48668;BME280;34453;52.198;5.004;2023-04-22T03:00:34;100983.22;;;6.22;100.00
48668;BME280;34453;52.198;5.004;2023-04-22T03:02:59;100973.94;;;6.07;100.00
48668;BME280;34453;52.198;5.004;2023-04-22T03:05:25;100985.34;;;6.05;100.00
48668;BME280;34453;52.198;5.004;2023-04-22T03:07:52;100974.25;;;6.03;100.00
48668;BME280;34453;52.198;5.004;2023-04-22T03:10:17;100970.69;;;6.04;100.00
48668;BME280;34453;52.198;5.004;2023-04-22T03:12:42;100965.59;;;6.02;100.00
48668;BME280;34453;52.198;5.004;2023-04-22T03:15:08;100975.81;;;6.05;100.00
48668;BME280;34453;52.198;5.004;2023-04-22T03:17:33;100961.66;;;6.09;100.00
48668;BME280;34453;52.198;5.004;2023-04-22T03:19:59;100963.00;;;6.02;100.00
48668;BME280;34453;52.198;5.004;2023-04-22T03:22:25;100961.13;;;6.04;100.00
48668;BME280;34453;52.198;5.004;2023-04-22T03:24:50;100958.13;;;6.10;100.00
48668;BME280;34453;52.198;5.004;2023-04-22T03:27:16;100956.00;;;6.15;100.00
48668;BME280;34453;52.198;5.004;2023-04-22T03:29:41;100958.91;;;6.23;100.00
48668;BME280;34453;52.198;5.004;2023-04-22T03:32:07;100961.56;;;6.35;100.00
48668;BME280;34453;52.198;5.004;2023-04-22T03:34:32;100962.66;;;6.43;100.00
48668;BME280;34453;52.198;5.004;2023-04-22T03:36:57;100945.91;;;6.48;100.00
48668;BME280;34453;52.198;5.004;2023-04-22T03:39:23;100945.66;;;6.51;100.00
48668;BME280;34453;52.198;5.004;2023-04-22T03:41:48;100946.19;;;6.56;100.00
48668;BME280;34453;52.198;5.004;2023-04-22T03:44:14;100951.88;;;6.61;100.00
48668;BME280;34453;52.198;5.004;2023-04-22T03:46:39;100948.91;;;6.66;100.00
48668;BME280;34453;52.198;5.004;2023-04-22T03:49:05;100936.66;;;6.68;100.00
48668;BME280;34453;52.198;5.004;2023-04-22T03:51:30;100941.84;;;6.68;100.00
48668;BME280;34453;52.198;5.004;2023-04-22T03:53:56;100936.50;;;6.69;100.00
48668;BME280;34453;52.198;5.004;2023-04-22T03:56:21;100931.09;;;6.72;100.00
48668;BME280;34453;52.198;5.004;2023-04-22T03:58:48;100937.13;;;6.73;100.00
48668;BME280;34453;52.198;5.004;2023-04-22T04:01:14;100934.53;;;6.73;100.00
48668;BME280;34453;52.198;5.004;2023-04-22T04:03:39;100935.25;;;6.75;100.00
48668;BME280;34453;52.198;5.004;2023-04-22T04:06:05;100931.56;;;6.77;100.00
48668;BME280;34453;52.198;5.004;2023-04-22T04:08:30;100930.50;;;6.80;100.00
48668;BME280;34453;52.198;5.004;2023-04-22T04:10:55;100936.09;;;6.87;100.00
48668;BME280;34453;52.198;5.004;2023-04-22T04:13:21;100923.09;;;6.87;100.00
48668;BME280;34453;52.198;5.004;2023-04-22T04:15:46;100923.22;;;6.85;100.00
48668;BME280;34453;52.198;5.004;2023-04-22T04:18:12;100916.44;;;6.82;100.00
48668;BME280;34453;52.198;5.004;2023-04-22T04:20:38;100921.88;;;6.79;100.00
48668;BME280;34453;52.198;5.004;2023-04-22T04:23:03;100916.13;;;6.87;100.00
48668;BME280;34453;52.198;5.004;2023-04-22T04:25:28;100922.72;;;6.91;100.00
48668;BME280;34453;52.198;5.004;2023-04-22T04:28:02;100912.34;;;6.91;100.00
48668;BME280;34453;52.198;5.004;2023-04-22T04:30:27;100918.25;;;6.93;100.00
48668;BME280;34453;52.198;5.004;2023-04-22T04:32:53;100918.75;;;6.98;100.00
48668;BME280;34453;52.198;5.004;2023-04-22T04:35:18;100919.22;;;7.03;100.00
48668;BME280;34453;52.198;5.004;2023-04-22T04:37:44;100925.84;;;7.08;100.00
48668;BME280;34453;52.198;5.004;2023-04-22T04:40:10;100915.44;;;7.08;100.00
48668;BME280;34453;52.198;5.004;2023-04-22T04:42:39;100912.84;;;7.08;100.00
48668;BME280;34453;52.198;5.004;2023-04-22T04:45:05;100916.38;;;7.06;100.00
48668;BME280;34453;52.198;5.004;2023-04-22T04:47:31;100911.19;;;7.06;100.00
48668;BME280;34453;52.198;5.004;2023-04-22T04:49:59;100914.50;;;7.09;100.00
48668;BME280;34453;52.198;5.004;2023-04-22T04:52:24;100911.88;;;7.09;100.00
48668;BME280;34453;52.198;5.004;2023-04-22T04:54:49;100914.28;;;7.12;100.00
48668;BME280;34453;52.198;5.004;2023-04-22T04:57:15;100910.47;;;7.16;100.00
48668;BME280;34453;52.198;5.004;2023-04-22T04:59:40;100910.97;;;7.21;100.00
48668;BME280;34453;52.198;5.004;2023-04-22T05:02:05;100911.69;;;7.23;100.00
48668;BME280;34453;52.198;5.004;2023-04-22T05:04:31;100911.44;;;7.26;100.00
48668;BME280;34453;52.198;5.004;2023-04-22T05:06:56;100907.66;;;7.30;100.00
48668;BME280;34453;52.198;5.004;2023-04-22T05:09:21;100922.81;;;7.36;100.00
48668;BME280;34453;52.198;5.004;2023-04-22T05:11:47;100912.97;;;7.40;100.00
48668;BME280;34453;52.198;5.004;2023-04-22T05:14:12;100907.41;;;7.44;100.00
48668;BME280;34453;52.198;5.004;2023-04-22T05:16:38;100917.34;;;7.51;100.00
48668;BME280;34453;52.198;5.004;2023-04-22T05:19:03;100920.56;;;7.54;100.00
48668;BME280;34453;52.198;5.004;2023-04-22T05:21:28;100913.31;;;7.58;100.00
48668;BME280;34453;52.198;5.004;2023-04-22T05:23:55;100916.41;;;7.63;100.00
48668;BME280;34453;52.198;5.004;2023-04-22T05:26:21;100913.81;;;7.63;100.00
48668;BME280;34453;52.198;5.004;2023-04-22T05:28:46;100908.34;;;7.66;100.00
48668;BME280;34453;52.198;5.004;2023-04-22T05:31:11;100919.47;;;7.68;100.00
48668;BME280;34453;52.198;5.004;2023-04-22T05:33:37;100916.88;;;7.68;100.00
48668;BME280;34453;52.198;5.004;2023-04-22T05:36:02;100922.53;;;7.73;100.00
48668;BME280;34453;52.198;5.004;2023-04-22T05:38:28;100919.69;;;7.76;100.00
48668;BME280;34453;52.198;5.004;2023-04-22T05:40:53;100922.28;;;7.87;100.00
48668;BME280;34453;52.198;5.004;2023-04-22T05:43:18;100932.56;;;7.89;100.00
48668;BME280;34453;52.198;5.004;2023-04-22T05:45:44;100929.75;;;7.92;100.00
48668;BME280;34453;52.198;5.004;2023-04-22T05:48:09;100929.81;;;8.02;100.00
48668;BME280;34453;52.198;5.004;2023-04-22T05:50:35;100921.06;;;8.03;100.00
48668;BME280;34453;52.198;5.004;2023-04-22T05:53:00;100931.94;;;8.08;100.00
48668;BME280;34453;52.198;5.004;2023-04-22T05:55:25;100934.28;;;8.11;100.00
48668;BME280;34453;52.198;5.004;2023-04-22T05:57:51;100925.06;;;8.18;100.00
48668;BME280;34453;52.198;5.004;2023-04-22T06:00:17;100924.78;;;8.21;100.00
48668;BME280;34453;52.198;5.004;2023-04-22T06:02:42;100914.97;;;8.25;100.00
48668;BME280;34453;52.198;5.004;2023-04-22T06:05:08;100926.22;;;8.25;100.00
48668;BME280;34453;52.198;5.004;2023-04-22T06:07:33;100921.34;;;8.32;100.00
48668;BME280;34453;52.198;5.004;2023-04-22T06:09:59;100915.75;;;8.37;100.00
48668;BME280;34453;52.198;5.004;2023-04-22T06:12:24;100915.28;;;8.43;100.00
48668;BME280;34453;52.198;5.004;2023-04-22T06:14:49;100923.97;;;8.53;100.00
48668;BME280;34453;52.198;5.004;2023-04-22T06:17:15;100920.44;;;8.54;100.00
48668;BME280;34453;52.198;5.004;2023-04-22T06:19:40;100922.53;;;8.60;100.00
48668;BME280;34453;52.198;5.004;2023-04-22T06:22:06;100921.31;;;8.64;100.00
48668;BME280;34453;52.198;5.004;2023-04-22T06:24:31;100920.69;;;8.72;100.00
48668;BME280;34453;52.198;5.004;2023-04-22T06:26:56;100907.00;;;8.80;100.00
48668;BME280;34453;52.198;5.004;2023-04-22T06:29:22;100912.09;;;8.81;100.00
48668;BME280;34453;52.198;5.004;2023-04-22T06:31:48;100904.16;;;8.83;100.00
48668;BME280;34453;52.198;5.004;2023-04-22T06:34:13;100896.50;;;8.91;100.00
48668;BME280;34453;52.198;5.004;2023-04-22T06:36:39;100885.81;;;8.94;100.00
48668;BME280;34453;52.198;5.004;2023-04-22T06:39:04;100886.94;;;9.01;100.00
48668;BME280;34453;52.198;5.004;2023-04-22T06:41:30;100881.47;;;9.04;100.00
48668;BME280;34453;52.198;5.004;2023-04-22T06:43:57;100882.34;;;9.15;100.00
48668;BME280;34453;52.198;5.004;2023-04-22T06:46:22;100876.47;;;9.22;100.00
48668;BME280;34453;52.198;5.004;2023-04-22T06:48:47;100885.44;;;9.29;100.00
48668;BME280;34453;52.198;5.004;2023-04-22T06:51:13;100868.41;;;9.35;100.00
48668;BME280;34453;52.198;5.004;2023-04-22T06:53:38;100875.84;;;9.40;100.00
48668;BME280;34453;52.198;5.004;2023-04-22T06:56:04;100871.19;;;9.43;100.00
48668;BME280;34453;52.198;5.004;2023-04-22T06:58:30;100851.69;;;9.57;100.00
48668;BME280;34453;52.198;5.004;2023-04-22T07:00:55;100861.91;;;9.70;100.00
48668;BME280;34453;52.198;5.004;2023-04-22T07:03:20;100860.25;;;9.69;100.00
48668;BME280;34453;52.198;5.004;2023-04-22T07:05:46;100856.00;;;9.78;100.00
48668;BME280;34453;52.198;5.004;2023-04-22T07:08:12;100850.22;;;9.74;100.00
48668;BME280;34453;52.198;5.004;2023-04-22T07:10:38;100865.78;;;9.85;100.00
48668;BME280;34453;52.198;5.004;2023-04-22T07:13:03;100855.34;;;9.95;100.00
48668;BME280;34453;52.198;5.004;2023-04-22T07:15:29;100857.25;;;9.93;100.00
48668;BME280;34453;52.198;5.004;2023-04-22T07:17:54;100858.75;;;9.86;100.00
48668;BME280;34453;52.198;5.004;2023-04-22T07:20:20;100852.59;;;9.96;100.00
48668;BME280;34453;52.198;5.004;2023-04-22T07:22:45;100840.75;;;9.92;100.00
48668;BME280;34453;52.198;5.004;2023-04-22T07:25:11;100848.44;;;10.13;100.00
48668;BME280;34453;52.198;5.004;2023-04-22T07:27:36;100835.38;;;10.23;100.00
48668;BME280;34453;52.198;5.004;2023-04-22T07:30:02;100849.59;;;10.30;100.00
48668;BME280;34453;52.198;5.004;2023-04-22T07:32:28;100846.69;;;10.33;100.00
48668;BME280;34453;52.198;5.004;2023-04-22T07:34:53;100844.59;;;10.47;100.00
48668;BME280;34453;52.198;5.004;2023-04-22T07:37:20;100833.84;;;10.60;100.00
48668;BME280;34453;52.198;5.004;2023-04-22T07:39:46;100843.31;;;10.70;100.00
48668;BME280;34453;52.198;5.004;2023-04-22T07:42:11;100844.41;;;10.77;100.00
48668;BME280;34453;52.198;5.004;2023-04-22T07:44:37;100844.53;;;10.86;100.00
48668;BME280;34453;52.198;5.004;2023-04-22T07:47:02;100844.66;;;10.94;100.00
48668;BME280;34453;52.198;5.004;2023-04-22T07:49:28;100849.19;;;10.92;100.00
48668;BME280;34453;52.198;5.004;2023-04-22T07:51:53;100845.34;;;10.86;100.00
48668;BME280;34453;52.198;5.004;2023-04-22T07:54:18;100841.44;;;11.00;100.00
48668;BME280;34453;52.198;5.004;2023-04-22T07:56:44;100850.69;;;10.94;100.00
48668;BME280;34453;52.198;5.004;2023-04-22T07:59:09;100845.22;;;10.88;100.00
48668;BME280;34453;52.198;5.004;2023-04-22T08:01:35;100856.88;;;10.93;100.00
48668;BME280;34453;52.198;5.004;2023-04-22T08:04:00;100847.06;;;11.05;100.00
48668;BME280;34453;52.198;5.004;2023-04-22T08:06:26;100848.84;;;11.05;100.00
48668;BME280;34453;52.198;5.004;2023-04-22T08:08:52;100854.81;;;11.25;100.00
48668;BME280;34453;52.198;5.004;2023-04-22T08:11:17;100843.09;;;11.29;100.00
48668;BME280;34453;52.198;5.004;2023-04-22T08:13:43;100845.81;;;11.37;100.00
48668;BME280;34453;52.198;5.004;2023-04-22T08:16:10;100841.25;;;11.39;100.00
48668;BME280;34453;52.198;5.004;2023-04-22T08:18:35;100823.78;;;11.57;100.00
48668;BME280;34453;52.198;5.004;2023-04-22T08:21:01;100815.91;;;11.57;100.00
48668;BME280;34453;52.198;5.004;2023-04-22T08:23:26;100821.66;;;11.89;100.00
48668;BME280;34453;52.198;5.004;2023-04-22T08:25:52;100804.56;;;12.02;100.00
48668;BME280;34453;52.198;5.004;2023-04-22T08:28:17;100799.66;;;12.26;100.00
48668;BME280;34453;52.198;5.004;2023-04-22T08:30:43;100785.09;;;12.31;100.00
48668;BME280;34453;52.198;5.004;2023-04-22T08:33:08;100787.38;;;12.52;100.00
48668;BME280;34453;52.198;5.004;2023-04-22T08:35:34;100791.28;;;12.74;100.00
48668;BME280;34453;52.198;5.004;2023-04-22T08:38:00;100781.66;;;12.83;100.00
48668;BME280;34453;52.198;5.004;2023-04-22T08:40:26;100786.72;;;12.84;100.00
48668;BME280;34453;52.198;5.004;2023-04-22T08:42:52;100782.94;;;12.79;100.00
48668;BME280;34453;52.198;5.004;2023-04-22T08:45:19;100774.41;;;12.77;100.00
48668;BME280;34453;52.198;5.004;2023-04-22T08:47:46;100787.75;;;12.92;100.00
48668;BME280;34453;52.198;5.004;2023-04-22T08:50:12;100778.78;;;13.11;100.00
48668;BME280;34453;52.198;5.004;2023-04-22T08:52:38;100782.47;;;13.26;100.00
48668;BME280;34453;52.198;5.004;2023-04-22T08:55:03;100780.03;;;13.33;100.00
48668;BME280;34453;52.198;5.004;2023-04-22T08:57:30;100775.59;;;13.33;100.00
48668;BME280;34453;52.198;5.004;2023-04-22T08:59:56;100779.41;;;13.47;100.00
48668;BME280;34453;52.198;5.004;2023-04-22T09:02:23;100772.56;;;13.79;100.00
48668;BME280;34453;52.198;5.004;2023-04-22T09:04:51;100771.41;;;14.06;100.00
48668;BME280;34453;52.198;5.004;2023-04-22T09:07:26;100767.94;;;14.14;100.00
48668;BME280;34453;52.198;5.004;2023-04-22T09:09:55;100773.69;;;14.25;100.00
48668;BME280;34453;52.198;5.004;2023-04-22T09:12:22;100764.31;;;14.06;100.00
48668;BME280;34453;52.198;5.004;2023-04-22T09:14:49;100762.50;;;14.07;100.00
48668;BME280;34453;52.198;5.004;2023-04-22T09:17:15;100757.75;;;14.10;100.00
48668;BME280;34453;52.198;5.004;2023-04-22T09:19:42;100739.94;;;14.45;100.00
48668;BME280;34453;52.198;5.004;2023-04-22T09:22:11;100738.94;;;14.38;100.00
48668;BME280;34453;52.198;5.004;2023-04-22T09:24:57;100731.03;;;14.46;100.00
48668;BME280;34453;52.198;5.004;2023-04-22T09:27:23;100722.97;;;14.56;100.00
48668;BME280;34453;52.198;5.004;2023-04-22T09:29:50;100736.91;;;14.73;100.00
48668;BME280;34453;52.198;5.004;2023-04-22T09:32:17;100732.16;;;15.00;100.00
48668;BME280;34453;52.198;5.004;2023-04-22T09:34:49;100731.38;;;15.22;100.00
48668;BME280;34453;52.198;5.004;2023-04-22T09:37:19;100718.47;;;15.59;100.00
48668;BME280;34453;52.198;5.004;2023-04-22T09:39:48;100712.59;;;15.71;100.00
48668;BME280;34453;52.198;5.004;2023-04-22T09:42:15;100701.19;;;15.79;100.00
48668;BME280;34453;52.198;5.004;2023-04-22T09:44:41;100691.91;;;15.60;100.00
48668;BME280;34453;52.198;5.004;2023-04-22T09:47:06;100674.38;;;15.90;100.00
48668;BME280;34453;52.198;5.004;2023-04-22T09:49:36;100664.47;;;15.92;100.00
48668;BME280;34453;52.198;5.004;2023-04-22T09:52:05;100669.97;;;15.83;100.00
48668;BME280;34453;52.198;5.004;2023-04-22T09:54:31;100664.47;;;15.92;100.00
48668;BME280;34453;52.198;5.004;2023-04-22T09:56:56;100668.72;;;15.93;100.00
48668;BME280;34453;52.198;5.004;2023-04-22T09:59:27;100681.84;;;16.02;100.00
48668;BME280;34453;52.198;5.004;2023-04-22T10:02:00;100703.78;;;16.17;100.00
48668;BME280;34453;52.198;5.004;2023-04-22T10:04:28;100724.28;;;15.77;100.00
48668;BME280;34453;52.198;5.004;2023-04-22T10:06:55;100724.66;;;15.43;100.00
48668;BME280;34453;52.198;5.004;2023-04-22T10:09:22;100732.63;;;15.34;100.00
48668;BME280;34453;52.198;5.004;2023-04-22T10:11:50;100726.19;;;15.60;100.00
48668;BME280;34453;52.198;5.004;2023-04-22T10:14:16;100723.09;;;15.57;100.00
48668;BME280;34453;52.198;5.004;2023-04-22T10:16:44;100726.00;;;15.62;100.00
48668;BME280;34453;52.198;5.004;2023-04-22T10:19:16;100723.81;;;15.73;100.00
48668;BME280;34453;52.198;5.004;2023-04-22T10:21:43;100713.06;;;16.13;100.00
48668;BME280;34453;52.198;5.004;2023-04-22T10:24:17;100709.94;;;15.94;100.00
48668;BME280;34453;52.198;5.004;2023-04-22T10:26:56;100710.19;;;15.62;100.00
48668;BME280;34453;52.198;5.004;2023-04-22T10:29:24;100711.03;;;16.00;100.00
48668;BME280;34453;52.198;5.004;2023-04-22T10:31:55;100706.34;;;16.25;100.00
48668;BME280;34453;52.198;5.004;2023-04-22T10:34:22;100704.06;;;16.22;100.00
48668;BME280;34453;52.198;5.004;2023-04-22T10:36:59;100699.25;;;16.26;100.00
48668;BME280;34453;52.198;5.004;2023-04-22T10:39:27;100704.25;;;16.50;100.00
48668;BME280;34453;52.198;5.004;2023-04-22T10:41:56;100692.28;;;16.84;100.00
48668;BME280;34453;52.198;5.004;2023-04-22T10:44:22;100694.41;;;16.44;100.00
48668;BME280;34453;52.198;5.004;2023-04-22T10:46:55;100709.16;;;16.24;100.00
48668;BME280;34453;52.198;5.004;2023-04-22T10:49:22;100711.91;;;16.45;100.00
48668;BME280;34453;52.198;5.004;2023-04-22T10:51:56;100722.00;;;16.12;100.00
48668;BME280;34453;52.198;5.004;2023-04-22T10:57:08;100738.66;;;15.66;100.00
48668;BME280;34453;52.198;5.004;2023-04-22T10:59:41;100744.63;;;15.60;100.00
48668;BME280;34453;52.198;5.004;2023-04-22T11:02:08;100724.97;;;15.48;100.00
48668;BME280;34453;52.198;5.004;2023-04-22T11:04:36;100727.63;;;15.71;100.00
48668;BME280;34453;52.198;5.004;2023-04-22T11:10:07;100720.03;;;15.91;100.00
48668;BME280;34453;52.198;5.004;2023-04-22T11:15:00;100718.94;;;16.00;100.00
48668;BME280;34453;52.198;5.004;2023-04-22T11:17:29;100711.84;;;15.86;100.00
48668;BME280;34453;52.198;5.004;2023-04-22T11:19:56;100718.06;;;15.70;100.00
48668;BME280;34453;52.198;5.004;2023-04-22T11:22:25;100719.28;;;15.59;100.00
48668;BME280;34453;52.198;5.004;2023-04-22T11:24:57;100724.88;;;15.56;100.00
48668;BME280;34453;52.198;5.004;2023-04-22T11:27:23;100716.00;;;15.57;100.00
48668;BME280;34453;52.198;5.004;2023-04-22T11:30:18;100698.84;;;15.61;100.00
48668;BME280;34453;52.198;5.004;2023-04-22T11:32:46;100692.22;;;15.65;100.00
48668;BME280;34453;52.198;5.004;2023-04-22T11:35:20;100714.72;;;15.53;100.00
48668;BME280;34453;52.198;5.004;2023-04-22T11:40:18;100713.72;;;15.31;100.00
48668;BME280;34453;52.198;5.004;2023-04-22T11:42:44;100741.09;;;14.99;100.00
48668;BME280;34453;52.198;5.004;2023-04-22T11:45:10;100742.97;;;14.74;100.00
48668;BME280;34453;52.198;5.004;2023-04-22T11:47:38;100746.41;;;14.10;100.00
48668;BME280;34453;52.198;5.004;2023-04-22T11:50:06;100740.66;;;13.74;100.00
48668;BME280;34453;52.198;5.004;2023-04-22T11:55:24;100766.94;;;13.41;100.00
48668;BME280;34453;52.198;5.004;2023-04-22T11:57:58;100761.97;;;13.30;100.00
48668;BME280;34453;52.198;5.004;2023-04-22T12:00:29;100749.66;;;13.30;100.00
48668;BME280;34453;52.198;5.004;2023-04-22T12:03:07;100764.06;;;13.26;100.00
48668;BME280;34453;52.198;5.004;2023-04-22T12:05:38;100764.69;;;13.20;100.00
48668;BME280;34453;52.198;5.004;2023-04-22T12:08:12;100770.09;;;13.10;100.00
48668;BME280;34453;52.198;5.004;2023-04-22T12:10:50;100775.44;;;12.92;100.00
48668;BME280;34453;52.198;5.004;2023-04-22T12:16:02;100775.44;;;12.92;100.00
48668;BME280;34453;52.198;5.004;2023-04-22T12:23:29;100779.66;;;12.77;100.00
48668;BME280;34453;52.198;5.004;2023-04-22T12:25:56;100772.94;;;12.82;100.00
48668;BME280;34453;52.198;5.004;2023-04-22T12:28:22;100763.03;;;12.68;100.00
48668;BME280;34453;52.198;5.004;2023-04-22T12:30:47;100779.75;;;12.67;100.00
48668;BME280;34453;52.198;5.004;2023-04-22T12:33:13;100819.13;;;12.41;100.00
48668;BME280;34453;52.198;5.004;2023-04-22T12:35:39;100828.31;;;12.19;100.00
48668;BME280;34453;52.198;5.004;2023-04-22T12:38:05;100825.00;;;12.17;100.00
48668;BME280;34453;52.198;5.004;2023-04-22T12:40:30;100797.00;;;11.99;100.00
48668;BME280;34453;52.198;5.004;2023-04-22T12:42:56;100796.00;;;12.00;100.00
48668;BME280;34453;52.198;5.004;2023-04-22T12:45:21;100794.03;;;11.94;100.00
48668;BME280;34453;52.198;5.004;2023-04-22T12:47:48;100792.56;;;11.82;100.00
48668;BME280;34453;52.198;5.004;2023-04-22T12:50:14;100784.56;;;12.01;100.00
48668;BME280;34453;52.198;5.004;2023-04-22T12:52:40;100774.88;;;12.20;100.00
48668;BME280;34453;52.198;5.004;2023-04-22T12:55:06;100771.03;;;12.32;100.00
48668;BME280;34453;52.198;5.004;2023-04-22T12:57:32;100763.84;;;12.34;100.00
48668;BME280;34453;52.198;5.004;2023-04-22T12:59:57;100764.66;;;12.35;100.00
48668;BME280;34453;52.198;5.004;2023-04-22T13:02:24;100764.44;;;12.28;100.00